Latest Weather Observations for Groote Eylandt Airport

IDD60801

Issued at 4:01 am CST Monday 20 February 2017 (issued every 30 minutes, with the page automatically refreshed every 10 minutes)

About weather observations | Map of weather stations | Latest weather observations for NT | Other Formats
Station Details ID: 014518 Name: GROOTE EYLANDT AIRPORT Lat: -13.97 Lon: 136.46 Height: 13.7 m
Data from the previous 72 hours. | See also: Recent months at Groote Eylandt Airport
Date/Time
CST
Temp
°C
App
Temp
°C
Dew
Point
°C
Rel
Hum
%
Delta-T
°C
Wind Press
QNH
hPa
Press
MSL
hPa
Rain since
9am
mm
Dir  Spd
km/h
Gust
km/h
Spd
kts
Gust
kts
20/04:00am 24.8 26.7 23.8 94 0.7 SW 20 41 11 22 1002.0 1001.9 26.0
20/03:30am 25.0 27.0 24.0 94 0.7 WSW 20 41 11 22 1001.9 1001.8 24.4
20/03:16am 25.1 26.7 23.9 93 0.8 WSW 22 39 12 21 1001.9 1001.8 24.4
20/03:12am 25.2 26.8 23.8 92 1.0 WSW 22 35 12 19 1001.9 1001.8 24.2
20/03:01am 25.2 27.2 24.0 93 0.8 SW 20 35 11 19 1001.8 1001.7 24.2
20/03:00am 25.2 27.2 24.0 93 0.8 SW 20 35 11 19 1001.8 1001.7 24.2
20/02:53am 25.1 26.1 23.5 91 1.1 SW 24 43 13 23 1001.8 1001.7 24.0
20/02:30am 26.2 27.7 23.7 86 1.7 WSW 22 39 12 21 1001.6 1001.5 23.8
20/02:22am 25.7 27.8 23.7 89 1.4 SW 19 39 10 21 1001.7 1001.6 23.8
20/02:07am 25.0 28.1 24.1 95 0.6 SW 15 30 8 16 1002.0 1001.9 23.8
20/02:00am 25.0 28.1 24.1 95 0.6 SW 15 26 8 14 1002.1 1002.0 23.6
20/01:42am 25.3 28.9 24.4 95 0.6 SW 13 28 7 15 1002.5 1002.4 23.2
20/01:30am 25.1 27.8 24.2 95 0.6 SW 17 32 9 17 1002.6 1002.5 22.8
20/01:25am 25.1 28.0 24.4 96 0.5 SW 17 32 9 17 1002.7 1002.6 22.8
20/01:00am 24.8 26.7 23.8 94 0.7 SW 20 43 11 23 1002.7 1002.6 22.0
20/12:30am 25.1 28.2 24.2 95 0.6 SW 15 30 8 16 1002.6 1002.5 19.8
20/12:27am 25.2 28.8 24.3 95 0.6 SSW 13 26 7 14 1002.7 1002.6 19.8
20/12:21am 25.1 28.2 24.1 94 0.7 SW 15 35 8 19 1002.7 1002.6 19.0
20/12:00am 25.1 26.8 24.1 94 0.7 SW 22 41 12 22 1002.8 1002.7 18.6
 
Date/Time
CST
Temp
°C
App
Temp
°C
Dew
Point
°C
Rel
Hum
%
Delta-T
°C
Wind Press
QNH
hPa
Press
MSL
hPa
Rain since
9am
mm
Dir  Spd
km/h
Gust
km/h
Spd
kts
Gust
kts
19/11:55pm 25.2 26.1 24.0 93 0.8 SW 26 43 14 23 1002.7 1002.6 18.2
19/11:50pm 25.4 26.9 24.4 94 0.7 SW 24 50 13 27 1002.6 1002.5 18.0
19/11:30pm 25.2 27.2 24.0 93 0.8 SSW 20 39 11 21 1002.5 1002.4 17.6
19/11:19pm 25.8 28.2 24.2 91 1.1 SW 19 35 10 19 1002.4 1002.3 17.2
19/11:00pm 26.4 28.4 24.6 90 1.2 SW 22 39 12 21 1002.1 1002.0 16.8
19/10:30pm 26.0 29.0 24.0 89 1.4 SSW 15 30 8 16 1002.3 1002.2 16.8
19/10:00pm 25.8 26.3 24.0 90 1.2 SSW 28 67 15 36 1002.1 1002.0 16.8
19/09:30pm 25.3 25.1 23.4 89 1.3 SSW 30 57 16 31 1001.6 1001.5 16.8
19/09:07pm 26.4 27.2 24.4 89 1.4 SW 28 48 15 26 1000.9 1000.8 16.8
19/09:00pm 26.6 28.0 24.8 90 1.3 SW 26 48 14 26 1000.6 1000.5 16.8
19/08:39pm 26.5 27.5 24.7 90 1.3 SW 28 52 15 28 1000.4 1000.3 16.8
19/08:30pm 26.2 28.2 24.6 91 1.1 SW 22 52 12 28 1000.3 1000.2 16.8
19/08:00pm 26.1 26.8 24.3 90 1.2 SW 28 48 15 26 999.6 999.5 16.8
19/07:30pm 26.2 26.6 24.4 90 1.2 WSW 30 54 16 29 999.8 999.7 16.8
19/07:26pm 26.3 27.1 24.5 90 1.2 WSW 28 54 15 29 999.8 999.7 16.8
19/07:07pm 25.9 27.2 24.7 93 0.8 W 26 41 14 22 1000.0 999.9 16.8
19/07:02pm 25.8 26.6 24.4 92 1.0 W 28 50 15 27 1000.1 1000.0 16.8
19/07:00pm 25.8 26.9 24.4 92 1.0 W 26 50 14 27 1000.1 1000.0 16.8
19/06:46pm 26.2 27.7 25.0 93 0.8 W 26 46 14 25 1000.0 999.9 16.4
19/06:38pm 26.3 26.4 25.4 95 0.6 WNW 35 54 19 29 999.9 999.8 16.2
19/06:35pm 26.2 25.4 25.3 95 0.6 NW 39 54 21 29 999.6 999.5 16.2
19/06:30pm 26.0 25.0 25.0 94 0.7 WNW 39 54 21 29 999.7 999.6 16.2
19/06:18pm 26.1 24.3 24.9 93 0.8 NW 43 57 23 31 999.8 999.7 16.2
19/06:00pm 26.1 25.7 24.7 92 1.0 NW 35 50 19 27 999.8 999.7 16.0
19/05:38pm 25.6 25.4 24.4 93 0.8 NW 33 46 18 25 1000.0 999.9 16.0
19/05:32pm 25.9 26.1 24.7 93 0.8 NW 32 50 17 27 1000.0 999.9 16.0
19/05:30pm 25.8 25.6 24.4 92 1.0 NW 33 50 18 27 1000.0 999.9 16.0
19/05:24pm 25.9 24.9 24.3 91 1.1 NW 37 50 20 27 1000.0 999.9 16.0
19/05:02pm 26.6 26.6 24.4 88 1.5 NW 32 44 17 24 1000.3 1000.2 16.0
19/05:00pm 26.6 26.5 24.3 87 1.6 NW 32 43 17 23 1000.4 1000.3 16.0
19/04:30pm 27.1 27.5 24.4 85 1.9 WNW 30 44 16 24 1000.9 1000.8 16.0
19/04:18pm 26.9 27.7 24.5 87 1.7 WNW 28 39 15 21 1001.0 1000.9 16.0
19/04:04pm 26.3 29.1 25.3 94 0.7 NW 20 30 11 16 1001.0 1000.9 16.0
19/04:01pm 26.4 29.6 25.5 95 0.6 NW 19 30 10 16 1001.0 1000.9 16.0
19/04:00pm 26.3 29.4 25.4 95 0.6 NW 19 30 10 16 1001.1 1001.0 16.0
19/03:38pm 25.7 28.8 24.8 95 0.6 WNW 17 28 9 15 1001.3 1001.2 15.4
19/03:34pm 25.7 29.3 25.0 96 0.5 WNW 15 22 8 12 1001.3 1001.2 15.0
19/03:30pm 25.2 28.0 24.3 95 0.6 W 17 24 9 13 1001.4 1001.3 15.0
19/03:28pm 25.2 28.0 24.3 95 0.6 W 17 24 9 13 1001.5 1001.4 15.0
19/03:00pm 26.2 28.0 24.8 92 1.0 NW 24 35 13 19 1001.4 1001.3 8.4
19/02:55pm 27.1 28.9 25.5 91 1.1 NW 26 35 14 19 1001.6 1001.5 6.6
19/02:52pm 27.3 29.3 25.1 88 1.5 NNW 24 33 13 18 1001.5 1001.4 6.0
19/02:47pm 27.4 29.5 24.7 85 1.9 NNW 22 32 12 17 1001.4 1001.3 5.8
19/02:30pm 27.2 30.6 25.8 92 1.0 NNW 19 32 10 17 1001.6 1001.5 5.8
19/02:27pm 27.6 31.6 26.7 95 0.6 NNW 19 28 10 15 1001.6 1001.5 5.8
19/02:23pm 26.6 30.4 25.9 96 0.5 NNW 17 26 9 14 1001.7 1001.6 5.8
19/02:05pm 26.2 28.7 24.8 92 1.0 NW 20 35 11 19 1002.1 1002.0 4.2
19/02:02pm 26.8 30.5 25.8 94 0.7 NW 17 24 9 13 1002.0 1001.9 3.4
19/02:00pm 26.8 30.5 25.8 94 0.7 NW 17 22 9 12 1002.1 1002.0 3.4
19/01:52pm 26.4 30.1 25.7 96 0.5 NW 17 20 9 11 1002.2 1002.1 3.4
19/01:32pm 26.2 25.3 23.9 87 1.6 NW 35 57 19 31 1002.2 1002.1 0.8
19/01:30pm 27.3 27.3 24.4 84 2.0 NW 32 54 17 29 1002.2 1002.1 0.0
19/01:28pm 27.8 27.5 23.2 76 3.1 NW 30 54 16 29 1002.2 1002.1 0.0
19/01:00pm 29.6 31.9 24.5 74 3.6 NNW 20 30 11 16 1002.7 1002.6 0.0
19/12:30pm 28.7 31.7 25.5 83 2.3 NW 20 28 11 15 1003.4 1003.3 0.0
19/12:00pm 29.1 30.1 24.7 77 3.1 NW 28 39 15 21 1003.9 1003.8 0.0
19/11:30am 30.0 31.5 24.9 74 3.6 WNW 26 35 14 19 1004.3 1004.2 0.0
19/11:00am 29.2 29.8 24.1 74 3.5 NW 28 39 15 21 1004.5 1004.4 0.0
19/10:30am 28.0 28.5 24.0 79 2.8 NW 28 39 15 21 1004.6 1004.5 0.0
19/10:28am 28.0 28.5 24.0 79 2.8 NW 28 39 15 21 1004.6 1004.5 0.0
19/10:00am 28.1 29.4 24.7 82 2.4 NNW 26 37 14 20 1004.8 1004.7 0.0
19/09:38am 27.7 29.2 24.3 82 2.4 NNW 24 37 13 20 1005.0 1004.9 0.0
19/09:30am 27.4 28.7 24.1 82 2.3 NNW 24 37 13 20 1005.1 1005.0 0.0
19/09:17am 27.2 28.5 24.1 83 2.1 NNW 24 33 13 18 1005.2 1005.1 0.0
19/09:00am 26.9 27.7 24.4 86 1.7 NW 28 39 15 21 1005.4 1005.3 1.0
19/08:32am 27.3 28.3 24.2 83 2.1 NNW 26 37 14 20 1005.3 1005.2 1.0
19/08:30am 27.3 28.8 24.4 84 2.0 NNW 24 37 13 20 1005.3 1005.2 1.0
19/08:00am 27.1 28.8 24.0 83 2.1 NW 22 32 12 17 1005.2 1005.1 1.0
19/07:47am 27.0 29.1 24.1 84 2.0 NW 20 30 11 16 1005.2 1005.1 1.0
19/07:30am 26.7 28.9 24.2 86 1.7 NW 20 28 11 15 1005.1 1005.0 1.0
19/07:24am 26.6 28.9 24.1 86 1.7 NW 19 24 10 13 1005.0 1004.9 1.0
19/07:21am 26.6 29.3 24.1 86 1.7 NW 17 22 9 12 1004.9 1004.8 1.0
19/07:00am 26.2 28.4 23.9 87 1.6 NW 19 26 10 14 1004.7 1004.6 1.0
19/06:51am 26.1 28.6 23.8 87 1.6 NW 17 26 9 14 1004.6 1004.5 1.0
19/06:30am 26.1 28.7 24.0 88 1.4 NW 17 24 9 13 1004.2 1004.1 1.0
19/06:26am 26.2 28.5 24.1 88 1.4 NW 19 24 10 13 1004.3 1004.2 1.0
19/06:00am 26.1 27.9 24.3 90 1.2 NW 22 30 12 16 1004.3 1004.2 1.0
19/05:30am 26.2 28.5 24.1 88 1.5 NW 19 22 10 12 1004.0 1003.9 1.0
19/05:19am 26.2 28.9 24.1 88 1.4 WNW 17 20 9 11 1003.7 1003.6 1.0
19/05:18am 26.1 28.7 24.0 88 1.4 WNW 17 20 9 11 1003.7 1003.6 1.0
19/05:00am 26.0 29.5 24.2 90 1.2 NW 13 19 7 10 1003.5 1003.4 1.0
19/04:30am 25.9 28.1 23.9 89 1.4 NW 19 28 10 15 1002.9 1002.8 1.0
19/04:00am 25.8 28.2 24.2 91 1.1 NW 19 26 10 14 1002.5 1002.4 1.0
19/03:35am 25.7 28.8 24.1 91 1.1 NW 15 19 8 10 1002.5 1002.4 1.0
19/03:30am 25.8 28.9 24.2 91 1.1 NW 15 19 8 10 1002.6 1002.5 1.0
19/03:27am 25.8 28.5 24.2 91 1.1 WNW 17 22 9 12 1002.6 1002.5 1.0
19/03:00am 25.8 27.8 24.0 90 1.2 NW 20 28 11 15 1003.2 1003.1 0.8
19/02:30am 25.9 28.2 24.1 90 1.2 NW 19 26 10 14 1004.0 1003.9 0.8
19/02:20am 25.9 28.0 24.1 90 1.2 NW 20 26 11 14 1004.3 1004.2 0.8
19/02:00am 26.4 28.4 23.9 86 1.7 NW 20 28 11 15 1004.7 1004.6 0.8
19/01:30am 26.5 28.3 24.2 87 1.6 NW 22 28 12 15 1005.6 1005.5 0.8
19/01:00am 26.6 28.6 23.9 85 1.9 NW 20 33 11 18 1006.0 1005.9 0.6
19/12:30am 26.4 29.5 24.1 87 1.6 NW 15 19 8 10 1006.1 1006.0 0.6
19/12:00am 26.3 30.0 24.5 90 1.2 NW 13 17 7 9 1005.9 1005.8 0.6
 
Date/Time
CST
Temp
°C
App
Temp
°C
Dew
Point
°C
Rel
Hum
%
Delta-T
°C
Wind Press
QNH
hPa
Press
MSL
hPa
Rain since
9am
mm
Dir  Spd
km/h
Gust
km/h
Spd
kts
Gust
kts
18/11:30pm 26.5 29.7 24.3 88 1.5 NW 15 20 8 11 1006.0 1005.9 0.6
18/11:00pm 26.9 30.4 24.2 85 1.9 NNW 13 17 7 9 1006.2 1006.1 0.4
18/10:30pm 27.1 31.5 24.4 85 1.9 NW 9 13 5 7 1006.0 1005.9 0.4
18/10:00pm 27.2 30.9 23.9 82 2.3 NW 11 17 6 9 1006.2 1006.1 0.4
18/09:30pm 26.5 31.3 25.1 92 1.0 WNW 9 13 5 7 1005.8 1005.7 0.4
18/09:00pm 26.2 31.1 24.4 90 1.2 N 6 11 3 6 1005.5 1005.4 0.4
18/08:30pm 26.1 31.7 24.3 90 1.2 WSW 2 22 1 12 1005.3 1005.2 0.4
18/08:00pm 26.0 30.6 24.2 90 1.2 SSW 7 15 4 8 1005.4 1005.3 0.4
18/07:30pm 26.6 31.4 24.4 88 1.5 WSW 7 15 4 8 1005.1 1005.0 0.2
18/07:00pm 27.9 30.5 23.9 79 2.8 NW 17 28 9 15 1005.1 1005.0 0.0
18/06:30pm 28.3 32.5 25.3 84 2.1 NNW 13 22 7 12 1004.3 1004.2 0.0
18/06:00pm 30.0 32.2 24.2 71 4.0 N 20 30 11 16 1003.7 1003.6 0.0
18/05:30pm 31.4 34.5 24.8 68 4.7 N 17 24 9 13 1003.1 1003.0 0.0
18/05:00pm 31.3 34.9 24.4 66 4.8 N 13 19 7 10 1003.5 1003.4 0.0
18/04:30pm 31.8 34.8 24.7 66 5.0 N 17 24 9 13 1003.7 1003.6 0.0
18/04:00pm 31.8 34.4 23.9 63 5.5 N 17 24 9 13 1003.7 1003.6 0.0
18/03:30pm 31.9 35.2 24.5 65 5.2 N 15 20 8 11 1003.9 1003.8 0.0
18/03:00pm 32.0 34.1 23.8 62 5.7 NNW 19 24 10 13 1004.2 1004.1 0.0
18/02:30pm 32.3 34.8 23.8 61 5.9 NNW 17 24 9 13 1004.7 1004.6 0.0
18/02:00pm 31.9 35.6 24.5 65 5.2 NNW 13 20 7 11 1005.1 1005.0 0.0
18/01:30pm 31.7 34.9 24.3 65 5.2 NW 15 20 8 11 1005.8 1005.7 0.0
18/01:00pm 31.5 34.1 23.9 64 5.3 NW 17 26 9 14 1006.2 1006.1 0.0
18/12:30pm 31.5 35.2 24.6 67 4.8 NW 13 20 7 11 1006.7 1006.6 0.0
18/12:00pm 31.0 34.1 23.6 64 5.1 NW 13 22 7 12 1007.2 1007.1 0.0
18/11:30am 30.8 33.5 23.5 65 5.1 WNW 15 22 8 12 1007.6 1007.5 0.0
18/11:00am 30.5 32.8 23.4 66 4.9 NW 17 24 9 13 1007.7 1007.6 0.0
18/10:30am 30.3 32.6 23.5 67 4.7 WNW 17 28 9 15 1007.8 1007.7 0.0
18/10:00am 30.0 32.2 23.9 70 4.2 WNW 19 26 10 14 1008.0 1007.9 0.0
18/09:30am 29.7 31.5 23.6 69 4.2 WNW 20 28 11 15 1008.1 1008.0 0.0
18/09:00am 29.8 32.8 24.7 74 3.6 WNW 17 22 9 12 1008.1 1008.0 0.2
18/08:30am 29.0 31.4 24.3 76 3.3 WNW 19 26 10 14 1008.3 1008.2 0.2
18/08:00am 28.6 30.6 23.9 75 3.2 WNW 20 26 11 14 1008.1 1008.0 0.2
18/07:30am 28.3 31.0 24.1 78 2.9 WNW 17 26 9 14 1007.8 1007.7 0.2
18/07:00am 28.2 31.9 24.6 81 2.5 NW 13 22 7 12 1007.4 1007.3 0.2
18/06:30am 27.8 31.4 24.4 82 2.4 NW 13 20 7 11 1007.1 1007.0 0.2
18/06:00am 28.2 30.5 24.4 80 2.6 NW 20 26 11 14 1006.6 1006.5 0.2
18/05:30am 28.3 31.3 24.7 81 2.5 WNW 17 24 9 13 1006.4 1006.3 0.2
18/05:00am 28.0 31.9 24.8 83 2.2 NW 13 17 7 9 1006.0 1005.9 0.2
18/04:30am 27.9 31.1 24.9 84 2.1 NNW 17 26 9 14 1005.7 1005.6 0.2
18/04:00am 27.7 31.0 25.1 86 1.8 NNW 17 26 9 14 1005.4 1005.3 0.2
18/03:30am 28.1 30.4 25.1 84 2.1 NW 22 32 12 17 1005.6 1005.5 0.2
18/03:00am 28.3 31.2 25.1 83 2.2 NNW 19 28 10 15 1005.7 1005.6 0.2
18/02:30am 28.4 31.3 25.4 84 2.1 NNW 20 28 11 15 1006.0 1005.9 0.2
18/02:00am 28.5 32.0 25.5 84 2.1 NNW 17 26 9 14 1006.3 1006.2 0.2
18/01:30am 28.3 32.7 25.1 83 2.2 NNW 11 17 6 9 1006.6 1006.5 0.2
18/01:00am 28.3 32.3 25.1 83 2.2 N 13 20 7 11 1007.0 1006.9 0.2
18/12:30am 28.4 32.5 25.2 83 2.3 NNW 13 19 7 10 1007.3 1007.2 0.2
18/12:00am 28.5 33.7 25.7 85 2.0 N 9 13 5 7 1007.7 1007.6 0.2
 
Date/Time
CST
Temp
°C
App
Temp
°C
Dew
Point
°C
Rel
Hum
%
Delta-T
°C
Wind Press
QNH
hPa
Press
MSL
hPa
Rain since
9am
mm
Dir  Spd
km/h
Gust
km/h
Spd
kts
Gust
kts
17/11:30pm 28.5 33.9 25.5 84 2.1 N 7 11 4 6 1008.0 1007.9 0.2
17/11:00pm 28.3 34.5 26.3 89 1.4 NNE 6 11 3 6 1008.0 1007.9 0.2
17/10:30pm 27.9 33.5 25.5 87 1.7 NNE 6 7 3 4 1008.0 1007.9 0.2
17/10:00pm 27.9 33.5 25.7 88 1.6 NE 7 11 4 6 1007.6 1007.5 0.2
17/09:30pm 27.6 33.3 25.6 89 1.4 NE 6 7 3 4 1007.2 1007.1 0.2
17/09:00pm 27.4 33.0 25.4 89 1.4 NE 6 7 3 4 1007.3 1007.2 0.2
17/08:30pm 27.6 33.7 25.0 86 1.8 NE 2 6 1 3 1007.0 1006.9 0.2
17/08:00pm 28.5 33.8 24.9 81 2.5 NE 6 7 3 4 1006.8 1006.7 0.2
17/07:30pm 29.1 34.4 24.9 78 2.9 NNE 6 9 3 5 1006.6 1006.5 0.2
17/07:00pm 29.7 34.7 24.8 75 3.4 NNE 7 9 4 5 1005.9 1005.8 0.2
17/06:30pm 30.6 35.2 24.7 71 4.1 N 9 13 5 7 1005.6 1005.5 0.2
17/06:00pm 31.1 36.2 25.0 70 4.3 NNW 7 9 4 5 1005.4 1005.3 0.2
17/05:30pm 31.2 35.4 24.1 66 5.0 NNW 9 13 5 7 1005.6 1005.5 0.2
17/05:00pm 31.9 36.2 24.2 63 5.4 NW 9 15 5 8 1005.7 1005.6 0.2
17/04:30pm 32.3 37.0 24.9 65 5.2 WNW 9 13 5 7 1006.0 1005.9 0.2
17/04:00pm 32.1 36.4 24.2 63 5.5 W 9 15 5 8 1006.0 1005.9 0.2
17/03:30pm 32.3 36.8 24.6 64 5.4 WSW 9 17 5 9 1006.2 1006.1 0.2
17/03:00pm 32.1 36.3 24.7 65 5.2 W 11 17 6 9 1006.4 1006.3 0.2
17/02:30pm 31.6 35.4 24.7 67 4.9 WNW 13 22 7 12 1006.6 1006.5 0.2
17/02:00pm 31.1 34.4 24.5 68 4.6 W 15 26 8 14 1007.1 1007.0 0.2
17/01:30pm 30.9 34.7 25.3 72 4.0 WNW 15 20 8 11 1007.7 1007.6 0.2
17/01:00pm 30.2 33.1 23.9 69 4.4 NW 15 26 8 14 1008.1 1008.0 0.2
17/12:30pm 29.7 32.7 24.6 74 3.6 WNW 17 22 9 12 1008.6 1008.5 0.2
17/12:00pm 29.2 31.8 23.9 73 3.7 NW 17 28 9 15 1009.1 1009.0 0.2
17/11:30am 29.2 32.5 23.9 73 3.7 W 13 20 7 11 1009.2 1009.1 0.2
17/11:00am 29.1 32.6 24.2 75 3.4 WNW 13 19 7 10 1009.3 1009.2 0.2
17/10:30am 28.6 31.8 23.7 75 3.4 W 13 22 7 12 1009.4 1009.3 0.2
17/10:00am 28.5 31.4 23.9 76 3.2 W 15 22 8 12 1009.5 1009.4 0.2
17/09:30am 28.3 31.5 23.7 76 3.2 W 13 19 7 10 1009.5 1009.4 0.0
17/09:00am 28.0 31.0 24.0 79 2.8 W 15 20 8 11 1009.5 1009.4 5.4
17/08:30am 28.0 31.6 24.4 81 2.5 W 13 19 7 10 1009.0 1008.9 5.4
17/08:00am 27.3 31.8 24.6 85 1.9 WSW 9 15 5 8 1008.4 1008.3 5.4
17/07:39am 26.8 31.6 24.5 87 1.6 W 7 11 4 6 1008.0 1007.9 5.4
17/07:30am 26.7 31.1 24.5 88 1.5 WNW 9 11 5 6 1008.0 1007.9 5.4
17/07:00am 26.3 31.1 24.2 88 1.4 W 6 9 3 5 1007.4 1007.3 5.4
17/06:30am 26.4 30.6 24.1 87 1.6 W 9 13 5 7 1007.0 1006.9 5.4
17/06:00am 26.4 30.6 24.1 87 1.6 W 9 13 5 7 1006.8 1006.7 5.4
17/05:30am 26.5 30.4 24.3 88 1.5 WNW 11 15 6 8 1006.6 1006.5 5.4
17/05:00am 26.9 30.6 24.5 87 1.7 WNW 13 17 7 9 1006.6 1006.5 5.4
17/04:30am 26.8 31.0 24.8 89 1.4 WNW 11 15 6 8 1006.5 1006.4 5.4

Other Formats:

Comma delimited format used in spreadsheet applications
http://www.bom.gov.au/fwo/IDD60801/IDD60801.94153.axf

JavaScript Object Notation format (JSON) in row-major order
http://www.bom.gov.au/fwo/IDD60801/IDD60801.94153.json